createdAt,value
2022-08-20T00:02:30.062Z,4.70
2022-08-20T00:07:35.295Z,4.97
2022-08-20T00:12:44.161Z,4.85
2022-08-20T00:17:48.106Z,4.65
2022-08-20T00:22:53.398Z,5.30
2022-08-20T00:27:57.648Z,4.72
2022-08-20T00:33:04.438Z,4.57
2022-08-20T00:38:09.946Z,4.78
2022-08-20T00:43:35.562Z,5.18
2022-08-20T00:48:42.598Z,4.72
2022-08-20T00:53:47.847Z,4.82
2022-08-20T00:58:52.901Z,4.93
2022-08-20T01:03:56.669Z,4.80
2022-08-20T01:09:02.667Z,4.80
2022-08-20T01:14:11.022Z,4.32
2022-08-20T01:19:29.708Z,4.40
2022-08-20T01:24:39.270Z,4.32
2022-08-20T01:29:44.867Z,4.78
2022-08-20T01:34:48.449Z,4.50
2022-08-20T01:39:52.067Z,4.28
2022-08-20T01:44:58.032Z,4.35
2022-08-20T01:50:15.640Z,4.57
2022-08-20T01:55:22.268Z,4.55
2022-08-20T02:00:28.216Z,4.47
2022-08-20T02:05:32.273Z,4.97
2022-08-20T02:10:36.020Z,4.77
2022-08-20T02:15:43.170Z,5.03
2022-08-20T02:20:47.766Z,4.50
2022-08-20T02:25:51.401Z,4.82
2022-08-20T02:30:56.710Z,4.78
2022-08-20T02:36:00.342Z,4.85
2022-08-20T02:41:03.990Z,5.28
2022-08-20T02:46:09.514Z,5.03
2022-08-20T02:51:13.237Z,5.22
2022-08-20T02:56:17.039Z,4.55
2022-08-20T03:01:22.301Z,5.05
2022-08-20T03:06:26.303Z,4.38
2022-08-20T03:11:29.997Z,5.00
2022-08-20T03:16:35.264Z,4.63
2022-08-20T03:21:38.861Z,5.70
2022-08-20T03:26:42.602Z,5.32
2022-08-20T03:31:47.894Z,4.75
2022-08-20T03:36:51.458Z,5.32
2022-08-20T03:41:55.077Z,4.88
2022-08-20T03:47:00.290Z,4.82
2022-08-20T03:52:04.317Z,5.55
2022-08-20T03:57:13.257Z,4.90
2022-08-20T04:02:18.689Z,5.40
2022-08-20T04:07:24.667Z,5.72
2022-08-20T04:12:28.614Z,6.20
2022-08-20T04:17:33.851Z,6.20
2022-08-20T04:27:40.853Z,5.28
2022-08-20T04:32:46.087Z,5.10
2022-08-20T04:42:53.273Z,5.38
2022-08-20T04:48:03.859Z,5.50
2022-08-20T04:53:11.135Z,4.57
2022-08-20T04:58:17.752Z,5.57
2022-08-20T05:03:23.626Z,5.25
2022-08-20T05:08:28.599Z,5.10
2022-08-20T05:13:32.274Z,4.88
2022-08-20T05:18:37.523Z,5.30
2022-08-20T05:23:41.311Z,5.47
2022-08-20T05:28:47.218Z,5.03
2022-08-20T05:34:02.999Z,5.25
2022-08-20T05:39:06.662Z,6.13
2022-08-20T05:44:11.422Z,4.97
2022-08-20T05:49:18.921Z,5.00
2022-08-20T05:54:23.105Z,4.95
2022-08-20T05:59:27.118Z,4.97
2022-08-20T06:04:32.467Z,5.38
2022-08-20T06:09:36.165Z,5.35
2022-08-20T06:14:39.863Z,5.30
2022-08-20T06:19:46.925Z,5.40
2022-08-20T06:24:50.641Z,5.63
2022-08-20T06:29:54.900Z,5.55
2022-08-20T06:35:01.067Z,5.35
2022-08-20T06:40:07.621Z,5.80
2022-08-20T06:45:12.157Z,5.95
2022-08-20T06:50:19.902Z,5.18
2022-08-20T06:55:23.949Z,5.43
2022-08-20T07:00:28.933Z,5.30
2022-08-20T07:05:35.976Z,5.27
2022-08-20T07:10:39.865Z,5.20
2022-08-20T07:15:44.170Z,6.10
2022-08-20T07:20:49.862Z,6.35
2022-08-20T07:25:54.613Z,5.10
2022-08-20T07:30:58.519Z,5.40
2022-08-20T07:36:17.665Z,5.60
2022-08-20T07:41:21.597Z,5.93
2022-08-20T07:46:25.198Z,5.78
2022-08-20T07:51:36.552Z,5.57
2022-08-20T07:56:40.158Z,5.93
2022-08-20T08:01:44.037Z,5.53
2022-08-20T08:06:49.966Z,5.80
2022-08-20T08:11:53.588Z,5.00
2022-08-20T08:17:00.751Z,5.65
2022-08-20T08:22:07.473Z,5.97
2022-08-20T08:27:11.699Z,5.85
2022-08-20T08:32:15.269Z,5.68
2022-08-20T08:37:20.545Z,6.18
2022-08-20T08:42:30.995Z,6.60
2022-08-20T08:47:39.942Z,5.57
2022-08-20T08:52:54.998Z,5.78
2022-08-20T08:58:16.487Z,6.23
2022-08-20T09:03:27.221Z,5.47
2022-08-20T09:08:36.631Z,5.72
2022-08-20T09:13:41.148Z,5.10
2022-08-20T09:18:44.995Z,6.25
2022-08-20T09:23:50.218Z,5.55
2022-08-20T09:28:53.788Z,5.60
2022-08-20T09:33:57.351Z,5.30
2022-08-20T09:39:03.357Z,5.75
2022-08-20T09:44:07.065Z,5.65
2022-08-20T09:49:10.686Z,5.72
2022-08-20T09:54:16.120Z,5.85
2022-08-20T09:59:19.727Z,5.53
2022-08-20T10:04:23.369Z,5.60
2022-08-20T10:09:28.658Z,5.85
2022-08-20T10:14:32.413Z,5.15
2022-08-20T10:19:36.118Z,4.80
2022-08-20T10:24:41.356Z,5.32
2022-08-20T10:29:47.021Z,5.00
2022-08-20T10:39:56.097Z,5.07
2022-08-20T10:44:59.719Z,4.85
2022-08-20T10:50:05.582Z,5.13
2022-08-20T11:00:17.121Z,5.30
2022-08-20T11:05:20.767Z,5.15
2022-08-20T11:10:27.716Z,5.47
2022-08-20T11:15:31.636Z,4.70
2022-08-20T11:20:36.311Z,5.25
2022-08-20T11:25:41.520Z,5.45
2022-08-20T11:30:45.120Z,4.90
2022-08-20T11:35:50.080Z,4.85
2022-08-20T11:40:55.494Z,5.27
2022-08-20T11:45:59.258Z,5.17
2022-08-20T11:51:02.812Z,4.35
2022-08-20T11:56:08.650Z,4.97
2022-08-20T12:01:17.307Z,4.70
2022-08-20T12:06:20.870Z,4.72
2022-08-20T12:11:27.108Z,5.03
2022-08-20T12:16:30.664Z,4.80
2022-08-20T12:21:35.101Z,5.05
2022-08-20T12:26:40.377Z,5.32
2022-08-20T12:31:43.974Z,4.93
2022-08-20T12:36:47.555Z,4.97
2022-08-20T12:41:52.762Z,5.00
2022-08-20T12:47:08.045Z,5.43
2022-08-20T12:52:11.640Z,4.77
2022-08-20T12:57:17.675Z,4.93
2022-08-20T13:02:21.316Z,5.07
2022-08-20T13:07:24.948Z,5.05
2022-08-20T13:12:30.215Z,5.10
2022-08-20T13:17:38.883Z,4.63
2022-08-20T13:22:43.899Z,4.70
2022-08-20T13:27:49.526Z,4.63
2022-08-20T13:32:53.299Z,5.22
2022-08-20T13:37:56.922Z,4.97
2022-08-20T13:43:06.169Z,4.93
2022-08-20T13:48:15.176Z,5.35
2022-08-20T13:53:19.037Z,4.60
2022-08-20T13:58:24.286Z,4.63
2022-08-20T14:03:27.843Z,5.07
2022-08-20T14:08:31.588Z,4.65
2022-08-20T14:13:36.804Z,5.00
2022-08-20T14:18:40.382Z,5.30
2022-08-20T14:23:44.033Z,5.00
2022-08-20T14:28:49.247Z,4.72
2022-08-20T14:33:52.826Z,5.47
2022-08-20T14:38:56.395Z,5.20
2022-08-20T14:44:01.602Z,4.45
2022-08-20T14:49:09.041Z,4.97
2022-08-20T14:54:12.643Z,4.43
2022-08-20T14:59:17.831Z,4.93
2022-08-20T15:04:21.406Z,3.93
2022-08-20T15:09:25.001Z,4.57
2022-08-20T15:14:30.293Z,4.85
2022-08-20T15:19:36.457Z,4.82
2022-08-20T15:24:40.112Z,4.97
2022-08-20T15:29:48.019Z,4.70
2022-08-20T15:34:51.612Z,4.32
2022-08-20T15:39:56.294Z,4.45
2022-08-20T15:45:01.565Z,4.00
2022-08-20T15:50:14.116Z,4.68
2022-08-20T15:55:18.245Z,4.25
2022-08-20T16:00:26.228Z,4.47
2022-08-20T16:05:40.058Z,3.83
2022-08-20T16:10:54.695Z,4.68
2022-08-20T16:16:05.980Z,4.22
2022-08-20T16:21:13.723Z,4.25
2022-08-20T16:26:33.036Z,4.43
2022-08-20T16:31:46.128Z,4.00
2022-08-20T16:37:03.538Z,4.35
2022-08-20T16:42:10.793Z,4.30
2022-08-20T16:47:19.478Z,4.20
2022-08-20T16:52:23.157Z,4.35
2022-08-20T16:57:28.733Z,4.20
2022-08-20T17:02:33.973Z,3.60
2022-08-20T17:07:50.726Z,4.45
2022-08-20T17:12:57.636Z,4.38
2022-08-20T17:18:20.938Z,3.80
2022-08-20T17:23:24.552Z,4.30
2022-08-20T17:28:30.824Z,4.10
2022-08-20T17:33:51.689Z,3.83
2022-08-20T17:38:57.602Z,4.20
2022-08-20T17:44:04.001Z,4.50
2022-08-20T17:49:15.107Z,4.57
2022-08-20T17:54:23.134Z,4.53
2022-08-20T17:59:59.556Z,4.65
2022-08-20T18:04:58.285Z,4.50
2022-08-20T18:10:07.197Z,4.38
2022-08-20T18:15:16.202Z,4.30
2022-08-20T18:20:50.711Z,4.20
2022-08-20T18:25:58.467Z,4.63
2022-08-20T18:31:04.110Z,4.88
2022-08-20T18:36:23.274Z,4.68
2022-08-20T18:41:30.462Z,4.60
2022-08-20T18:46:34.894Z,4.80
2022-08-20T18:56:45.831Z,5.03
2022-08-20T19:01:50.787Z,4.55
2022-08-20T19:07:00.079Z,4.60
2022-08-20T19:12:24.310Z,4.60
2022-08-20T19:17:57.544Z,4.82
2022-08-20T19:23:07.558Z,4.20
2022-08-20T19:28:20.990Z,4.95
2022-08-20T19:33:29.885Z,5.00
2022-08-20T19:38:35.661Z,4.65
2022-08-20T19:43:44.000Z,4.78
2022-08-20T19:49:00.664Z,4.43
2022-08-20T19:54:06.011Z,4.57
2022-08-20T19:59:11.134Z,4.70
2022-08-20T20:04:18.400Z,5.25
2022-08-20T20:09:26.155Z,4.90
2022-08-20T20:14:31.804Z,4.55
2022-08-20T20:19:47.149Z,5.05
2022-08-20T20:25:05.307Z,5.15
2022-08-20T20:30:12.922Z,4.30
2022-08-20T20:35:27.586Z,4.53
2022-08-20T20:40:36.084Z,4.78
2022-08-20T20:45:42.771Z,4.38
2022-08-20T20:50:47.346Z,4.38
2022-08-20T20:55:58.142Z,4.90
2022-08-20T21:01:01.741Z,4.70
2022-08-20T21:06:05.587Z,4.68
2022-08-20T21:11:12.876Z,4.60
2022-08-20T21:16:17.046Z,4.68
2022-08-20T21:21:20.617Z,5.22
2022-08-20T21:26:26.853Z,4.47
2022-08-20T21:31:33.716Z,4.78
2022-08-20T21:36:37.548Z,4.15
2022-08-20T21:46:46.552Z,4.05
2022-08-20T21:51:50.617Z,3.90
2022-08-20T21:56:59.062Z,4.35
2022-08-20T22:02:02.633Z,3.80
2022-08-20T22:07:07.478Z,4.03
2022-08-20T22:12:18.841Z,3.97
2022-08-20T22:17:22.494Z,4.03
2022-08-20T22:22:26.060Z,3.95
2022-08-20T22:27:31.472Z,3.75
2022-08-20T22:32:51.320Z,3.78
2022-08-20T22:37:55.925Z,3.97
2022-08-20T22:43:01.147Z,3.78
2022-08-20T22:48:06.326Z,3.70
2022-08-20T22:53:10.933Z,3.92
2022-08-20T22:58:16.348Z,3.83
2022-08-20T23:03:23.500Z,3.63
2022-08-20T23:08:43.967Z,3.47
2022-08-20T23:13:49.225Z,3.78
2022-08-20T23:18:53.016Z,3.80
2022-08-20T23:23:56.585Z,3.83
2022-08-20T23:29:01.851Z,3.40
2022-08-20T23:34:05.444Z,3.58
2022-08-20T23:39:09.140Z,3.50
2022-08-20T23:44:26.373Z,3.72
2022-08-20T23:49:31.937Z,3.80
2022-08-20T23:54:35.546Z,3.38
2022-08-20T23:59:40.770Z,3.60
